sensor_id;sensor_type;location;lat;lon;timestamp;pressure;altitude;pressure_sealevel;temperature
69590;BMP180;56792;50.644;17.984;2023-07-28T00:01:07;98870.40;;;16.80
69590;BMP180;56792;50.644;17.984;2023-07-28T00:03:35;98870.80;;;16.80
69590;BMP180;56792;50.644;17.984;2023-07-28T00:06:04;98865.60;;;16.80
69590;BMP180;56792;50.644;17.984;2023-07-28T00:08:32;98864.00;;;16.80
69590;BMP180;56792;50.644;17.984;2023-07-28T00:11:01;98856.60;;;16.80
69590;BMP180;56792;50.644;17.984;2023-07-28T00:13:29;98854.40;;;16.80
69590;BMP180;56792;50.644;17.984;2023-07-28T00:15:57;98849.00;;;16.80
69590;BMP180;56792;50.644;17.984;2023-07-28T00:18:26;98839.40;;;16.80
69590;BMP180;56792;50.644;17.984;2023-07-28T00:20:54;98840.60;;;16.80
69590;BMP180;56792;50.644;17.984;2023-07-28T00:23:23;98844.00;;;16.80
69590;BMP180;56792;50.644;17.984;2023-07-28T00:25:51;98846.40;;;16.80
69590;BMP180;56792;50.644;17.984;2023-07-28T00:28:19;98849.20;;;16.80
69590;BMP180;56792;50.644;17.984;2023-07-28T00:30:51;98849.80;;;16.80
69590;BMP180;56792;50.644;17.984;2023-07-28T00:33:19;98852.40;;;16.84
69590;BMP180;56792;50.644;17.984;2023-07-28T00:35:48;98852.60;;;16.88
69590;BMP180;56792;50.644;17.984;2023-07-28T00:38:17;98852.20;;;16.90
69590;BMP180;56792;50.644;17.984;2023-07-28T00:40:45;98850.40;;;16.90
69590;BMP180;56792;50.644;17.984;2023-07-28T00:43:14;98850.60;;;16.90
69590;BMP180;56792;50.644;17.984;2023-07-28T00:45:42;98842.60;;;16.88
69590;BMP180;56792;50.644;17.984;2023-07-28T00:48:16;98842.00;;;16.80
69590;BMP180;56792;50.644;17.984;2023-07-28T00:50:47;98832.80;;;16.80
69590;BMP180;56792;50.644;17.984;2023-07-28T00:53:16;98834.60;;;16.80
69590;BMP180;56792;50.644;17.984;2023-07-28T00:55:45;98832.00;;;16.80
69590;BMP180;56792;50.644;17.984;2023-07-28T00:58:14;98822.20;;;16.80
69590;BMP180;56792;50.644;17.984;2023-07-28T01:00:42;98818.20;;;16.80
69590;BMP180;56792;50.644;17.984;2023-07-28T01:03:10;98819.20;;;16.80
69590;BMP180;56792;50.644;17.984;2023-07-28T01:05:50;98818.80;;;16.80
69590;BMP180;56792;50.644;17.984;2023-07-28T01:08:28;98815.40;;;16.78
69590;BMP180;56792;50.644;17.984;2023-07-28T01:10:58;98810.00;;;16.78
69590;BMP180;56792;50.644;17.984;2023-07-28T01:13:26;98809.00;;;16.80
69590;BMP180;56792;50.644;17.984;2023-07-28T01:15:55;98801.20;;;16.74
69590;BMP180;56792;50.644;17.984;2023-07-28T01:18:25;98798.20;;;16.72
69590;BMP180;56792;50.644;17.984;2023-07-28T01:20:55;98804.20;;;16.70
69590;BMP180;56792;50.644;17.984;2023-07-28T01:23:40;98798.20;;;16.70
69590;BMP180;56792;50.644;17.984;2023-07-28T01:26:13;98802.20;;;16.72
69590;BMP180;56792;50.644;17.984;2023-07-28T01:28:45;98804.00;;;16.72
69590;BMP180;56792;50.644;17.984;2023-07-28T01:31:13;98806.20;;;16.76
69590;BMP180;56792;50.644;17.984;2023-07-28T01:33:42;98811.60;;;16.70
69590;BMP180;56792;50.644;17.984;2023-07-28T01:36:11;98809.60;;;16.70
69590;BMP180;56792;50.644;17.984;2023-07-28T01:38:40;98808.40;;;16.70
69590;BMP180;56792;50.644;17.984;2023-07-28T01:41:08;98804.40;;;16.70
69590;BMP180;56792;50.644;17.984;2023-07-28T01:43:37;98797.40;;;16.70
69590;BMP180;56792;50.644;17.984;2023-07-28T01:46:05;98794.40;;;16.70
69590;BMP180;56792;50.644;17.984;2023-07-28T01:48:33;98794.20;;;16.70
69590;BMP180;56792;50.644;17.984;2023-07-28T01:51:02;98794.20;;;16.70
69590;BMP180;56792;50.644;17.984;2023-07-28T01:53:30;98787.20;;;16.74
69590;BMP180;56792;50.644;17.984;2023-07-28T01:55:59;98786.40;;;16.80
69590;BMP180;56792;50.644;17.984;2023-07-28T01:58:28;98779.20;;;16.80
69590;BMP180;56792;50.644;17.984;2023-07-28T02:00:57;98775.00;;;16.80
69590;BMP180;56792;50.644;17.984;2023-07-28T02:03:25;98778.00;;;16.80
69590;BMP180;56792;50.644;17.984;2023-07-28T02:05:54;98774.80;;;16.82
69590;BMP180;56792;50.644;17.984;2023-07-28T02:08:22;98771.40;;;16.90
69590;BMP180;56792;50.644;17.984;2023-07-28T02:10:50;98766.00;;;16.90
69590;BMP180;56792;50.644;17.984;2023-07-28T02:13:21;98769.00;;;16.90
69590;BMP180;56792;50.644;17.984;2023-07-28T02:15:49;98771.00;;;16.90
69590;BMP180;56792;50.644;17.984;2023-07-28T02:18:17;98775.00;;;16.90
69590;BMP180;56792;50.644;17.984;2023-07-28T02:20:49;98771.40;;;16.90
69590;BMP180;56792;50.644;17.984;2023-07-28T02:23:18;98770.20;;;16.90
69590;BMP180;56792;50.644;17.984;2023-07-28T02:25:46;98768.00;;;16.90
69590;BMP180;56792;50.644;17.984;2023-07-28T02:28:14;98763.00;;;16.90
69590;BMP180;56792;50.644;17.984;2023-07-28T02:30:43;98763.20;;;16.90
69590;BMP180;56792;50.644;17.984;2023-07-28T02:33:11;98761.20;;;16.90
69590;BMP180;56792;50.644;17.984;2023-07-28T02:35:39;98758.20;;;16.90
69590;BMP180;56792;50.644;17.984;2023-07-28T02:38:07;98754.00;;;16.90
69590;BMP180;56792;50.644;17.984;2023-07-28T02:40:36;98754.80;;;16.90
69590;BMP180;56792;50.644;17.984;2023-07-28T02:43:04;98758.00;;;16.90
69590;BMP180;56792;50.644;17.984;2023-07-28T02:45:33;98759.40;;;16.90
69590;BMP180;56792;50.644;17.984;2023-07-28T02:48:01;98750.40;;;16.90
69590;BMP180;56792;50.644;17.984;2023-07-28T02:50:29;98751.80;;;16.90
69590;BMP180;56792;50.644;17.984;2023-07-28T02:52:57;98752.00;;;16.90
69590;BMP180;56792;50.644;17.984;2023-07-28T02:55:26;98751.20;;;16.90
69590;BMP180;56792;50.644;17.984;2023-07-28T02:57:54;98748.60;;;16.90
69590;BMP180;56792;50.644;17.984;2023-07-28T03:00:23;98747.60;;;16.90
69590;BMP180;56792;50.644;17.984;2023-07-28T03:02:51;98745.20;;;16.90
69590;BMP180;56792;50.644;17.984;2023-07-28T03:05:19;98743.80;;;16.90
69590;BMP180;56792;50.644;17.984;2023-07-28T03:08:05;98736.00;;;16.90
69590;BMP180;56792;50.644;17.984;2023-07-28T03:10:34;98738.20;;;16.90
69590;BMP180;56792;50.644;17.984;2023-07-28T03:13:02;98736.00;;;16.90
69590;BMP180;56792;50.644;17.984;2023-07-28T03:15:30;98731.60;;;16.90
69590;BMP180;56792;50.644;17.984;2023-07-28T03:17:59;98733.00;;;16.90
69590;BMP180;56792;50.644;17.984;2023-07-28T03:20:27;98739.00;;;16.90
69590;BMP180;56792;50.644;17.984;2023-07-28T03:22:55;98732.40;;;16.90
69590;BMP180;56792;50.644;17.984;2023-07-28T03:25:24;98730.40;;;16.82
69590;BMP180;56792;50.644;17.984;2023-07-28T03:27:54;98727.60;;;16.80
69590;BMP180;56792;50.644;17.984;2023-07-28T03:30:22;98726.20;;;16.80
69590;BMP180;56792;50.644;17.984;2023-07-28T03:32:50;98729.60;;;16.82
69590;BMP180;56792;50.644;17.984;2023-07-28T03:35:19;98729.60;;;16.80
69590;BMP180;56792;50.644;17.984;2023-07-28T03:37:52;98725.40;;;16.80
69590;BMP180;56792;50.644;17.984;2023-07-28T03:40:21;98730.40;;;16.80
69590;BMP180;56792;50.644;17.984;2023-07-28T03:42:52;98729.60;;;16.80
69590;BMP180;56792;50.644;17.984;2023-07-28T03:45:21;98721.60;;;16.80
69590;BMP180;56792;50.644;17.984;2023-07-28T03:47:49;98721.40;;;16.80
69590;BMP180;56792;50.644;17.984;2023-07-28T03:50:18;98727.40;;;16.80
69590;BMP180;56792;50.644;17.984;2023-07-28T03:52:46;98724.60;;;16.84
69590;BMP180;56792;50.644;17.984;2023-07-28T03:55:15;98724.20;;;16.90
69590;BMP180;56792;50.644;17.984;2023-07-28T03:57:44;98719.60;;;16.90
69590;BMP180;56792;50.644;17.984;2023-07-28T04:00:14;98721.00;;;16.90
69590;BMP180;56792;50.644;17.984;2023-07-28T04:02:43;98729.20;;;16.90
69590;BMP180;56792;50.644;17.984;2023-07-28T04:05:11;98731.20;;;16.90
69590;BMP180;56792;50.644;17.984;2023-07-28T04:07:39;98730.80;;;16.90
69590;BMP180;56792;50.644;17.984;2023-07-28T04:10:09;98731.40;;;16.90
69590;BMP180;56792;50.644;17.984;2023-07-28T04:12:37;98725.60;;;16.90
69590;BMP180;56792;50.644;17.984;2023-07-28T04:15:09;98719.00;;;16.98
69590;BMP180;56792;50.644;17.984;2023-07-28T04:17:37;98724.40;;;17.00
69590;BMP180;56792;50.644;17.984;2023-07-28T04:20:09;98721.20;;;17.00
69590;BMP180;56792;50.644;17.984;2023-07-28T04:22:37;98710.00;;;17.06
69590;BMP180;56792;50.644;17.984;2023-07-28T04:25:08;98709.20;;;17.10
69590;BMP180;56792;50.644;17.984;2023-07-28T04:27:36;98718.80;;;17.10
69590;BMP180;56792;50.644;17.984;2023-07-28T04:30:08;98716.00;;;17.10
69590;BMP180;56792;50.644;17.984;2023-07-28T04:32:36;98712.40;;;17.10
69590;BMP180;56792;50.644;17.984;2023-07-28T04:35:12;98712.20;;;17.12
69590;BMP180;56792;50.644;17.984;2023-07-28T04:37:51;98710.00;;;17.20
69590;BMP180;56792;50.644;17.984;2023-07-28T04:40:34;98711.40;;;17.20
69590;BMP180;56792;50.644;17.984;2023-07-28T04:43:02;98711.40;;;17.20
69590;BMP180;56792;50.644;17.984;2023-07-28T04:45:31;98707.00;;;17.20
69590;BMP180;56792;50.644;17.984;2023-07-28T04:48:00;98710.80;;;17.20
69590;BMP180;56792;50.644;17.984;2023-07-28T04:50:29;98712.80;;;17.20
69590;BMP180;56792;50.644;17.984;2023-07-28T04:53:21;98709.20;;;17.30
69590;BMP180;56792;50.644;17.984;2023-07-28T04:56:06;98707.60;;;17.30
69590;BMP180;56792;50.644;17.984;2023-07-28T04:58:34;98702.00;;;17.40
69590;BMP180;56792;50.644;17.984;2023-07-28T05:01:03;98703.80;;;17.40
69590;BMP180;56792;50.644;17.984;2023-07-28T05:03:32;98702.00;;;17.50
69590;BMP180;56792;50.644;17.984;2023-07-28T05:06:10;98709.60;;;17.50
69590;BMP180;56792;50.644;17.984;2023-07-28T05:08:39;98707.80;;;17.54
69590;BMP180;56792;50.644;17.984;2023-07-28T05:11:07;98708.60;;;17.52
69590;BMP180;56792;50.644;17.984;2023-07-28T05:13:35;98707.00;;;17.58
69590;BMP180;56792;50.644;17.984;2023-07-28T05:16:04;98705.40;;;17.60
69590;BMP180;56792;50.644;17.984;2023-07-28T05:18:51;98707.00;;;17.60
69590;BMP180;56792;50.644;17.984;2023-07-28T05:21:38;98704.80;;;17.60
69590;BMP180;56792;50.644;17.984;2023-07-28T05:24:07;98705.80;;;17.60
69590;BMP180;56792;50.644;17.984;2023-07-28T05:26:36;98708.60;;;17.60
69590;BMP180;56792;50.644;17.984;2023-07-28T05:29:04;98706.00;;;17.62
69590;BMP180;56792;50.644;17.984;2023-07-28T05:31:33;98708.60;;;17.66
69590;BMP180;56792;50.644;17.984;2023-07-28T05:34:01;98713.40;;;17.70
69590;BMP180;56792;50.644;17.984;2023-07-28T05:36:30;98709.80;;;17.62
69590;BMP180;56792;50.644;17.984;2023-07-28T05:39:01;98708.60;;;17.66
69590;BMP180;56792;50.644;17.984;2023-07-28T05:41:38;98710.60;;;17.60
69590;BMP180;56792;50.644;17.984;2023-07-28T05:44:07;98717.20;;;17.60
69590;BMP180;56792;50.644;17.984;2023-07-28T05:46:35;98721.60;;;17.60
69590;BMP180;56792;50.644;17.984;2023-07-28T05:49:04;98733.00;;;17.50
69590;BMP180;56792;50.644;17.984;2023-07-28T05:51:32;98733.20;;;17.50
69590;BMP180;56792;50.644;17.984;2023-07-28T05:54:01;98725.40;;;17.44
69590;BMP180;56792;50.644;17.984;2023-07-28T05:56:30;98722.20;;;17.40
69590;BMP180;56792;50.644;17.984;2023-07-28T05:58:58;98729.00;;;17.40
69590;BMP180;56792;50.644;17.984;2023-07-28T06:01:26;98737.80;;;17.36
69590;BMP180;56792;50.644;17.984;2023-07-28T06:04:13;98734.00;;;17.30
69590;BMP180;56792;50.644;17.984;2023-07-28T06:06:46;98738.00;;;17.30
69590;BMP180;56792;50.644;17.984;2023-07-28T06:09:16;98738.80;;;17.20
69590;BMP180;56792;50.644;17.984;2023-07-28T06:11:45;98744.00;;;17.10
69590;BMP180;56792;50.644;17.984;2023-07-28T06:14:13;98746.80;;;17.10
69590;BMP180;56792;50.644;17.984;2023-07-28T06:16:42;98748.20;;;17.10
69590;BMP180;56792;50.644;17.984;2023-07-28T06:19:10;98752.00;;;17.10
69590;BMP180;56792;50.644;17.984;2023-07-28T06:21:40;98752.20;;;17.00
69590;BMP180;56792;50.644;17.984;2023-07-28T06:24:08;98751.40;;;17.00
69590;BMP180;56792;50.644;17.984;2023-07-28T06:26:37;98751.80;;;17.00
69590;BMP180;56792;50.644;17.984;2023-07-28T06:29:05;98756.00;;;16.90
69590;BMP180;56792;50.644;17.984;2023-07-28T06:31:33;98759.20;;;16.90
69590;BMP180;56792;50.644;17.984;2023-07-28T06:34:02;98755.60;;;16.90
69590;BMP180;56792;50.644;17.984;2023-07-28T06:36:31;98759.80;;;16.90
69590;BMP180;56792;50.644;17.984;2023-07-28T06:38:59;98763.40;;;16.90
69590;BMP180;56792;50.644;17.984;2023-07-28T06:41:28;98762.20;;;16.90
69590;BMP180;56792;50.644;17.984;2023-07-28T06:44:01;98769.40;;;16.90
69590;BMP180;56792;50.644;17.984;2023-07-28T06:46:30;98773.20;;;16.90
69590;BMP180;56792;50.644;17.984;2023-07-28T06:48:59;98769.00;;;16.94
69590;BMP180;56792;50.644;17.984;2023-07-28T06:51:27;98768.20;;;17.08
69590;BMP180;56792;50.644;17.984;2023-07-28T06:53:55;98765.80;;;17.06
69590;BMP180;56792;50.644;17.984;2023-07-28T06:56:25;98767.20;;;17.08
69590;BMP180;56792;50.644;17.984;2023-07-28T06:58:54;98775.40;;;17.00
69590;BMP180;56792;50.644;17.984;2023-07-28T07:01:22;98779.80;;;16.92
69590;BMP180;56792;50.644;17.984;2023-07-28T07:03:50;98772.80;;;17.00
69590;BMP180;56792;50.644;17.984;2023-07-28T07:06:19;98777.80;;;17.00
69590;BMP180;56792;50.644;17.984;2023-07-28T07:08:48;98777.40;;;16.90
69590;BMP180;56792;50.644;17.984;2023-07-28T07:11:16;98783.80;;;16.90
69590;BMP180;56792;50.644;17.984;2023-07-28T07:13:45;98788.80;;;16.90
69590;BMP180;56792;50.644;17.984;2023-07-28T07:16:16;98786.80;;;16.90
69590;BMP180;56792;50.644;17.984;2023-07-28T07:18:45;98791.00;;;16.90
69590;BMP180;56792;50.644;17.984;2023-07-28T07:21:13;98792.80;;;16.90
69590;BMP180;56792;50.644;17.984;2023-07-28T07:23:41;98789.80;;;16.80
69590;BMP180;56792;50.644;17.984;2023-07-28T07:26:26;98784.20;;;16.80
69590;BMP180;56792;50.644;17.984;2023-07-28T07:28:55;98780.20;;;16.80
69590;BMP180;56792;50.644;17.984;2023-07-28T07:31:24;98780.00;;;16.86
69590;BMP180;56792;50.644;17.984;2023-07-28T07:33:52;98778.00;;;16.90
69590;BMP180;56792;50.644;17.984;2023-07-28T07:36:21;98781.60;;;17.00
69590;BMP180;56792;50.644;17.984;2023-07-28T07:38:49;98783.60;;;17.10
69590;BMP180;56792;50.644;17.984;2023-07-28T07:41:18;98785.20;;;17.10
69590;BMP180;56792;50.644;17.984;2023-07-28T07:43:48;98777.00;;;17.14
69590;BMP180;56792;50.644;17.984;2023-07-28T07:46:17;98777.00;;;17.22
69590;BMP180;56792;50.644;17.984;2023-07-28T07:48:47;98773.60;;;17.30
69590;BMP180;56792;50.644;17.984;2023-07-28T07:51:16;98778.00;;;17.40
69590;BMP180;56792;50.644;17.984;2023-07-28T07:53:45;98776.60;;;17.48
69590;BMP180;56792;50.644;17.984;2023-07-28T07:56:13;98781.60;;;17.60
69590;BMP180;56792;50.644;17.984;2023-07-28T07:58:43;98781.00;;;17.70
69590;BMP180;56792;50.644;17.984;2023-07-28T08:01:11;98786.20;;;17.80
69590;BMP180;56792;50.644;17.984;2023-07-28T08:03:40;98785.20;;;17.80
69590;BMP180;56792;50.644;17.984;2023-07-28T08:06:08;98781.80;;;17.90
69590;BMP180;56792;50.644;17.984;2023-07-28T08:08:39;98789.20;;;18.00
69590;BMP180;56792;50.644;17.984;2023-07-28T08:11:08;98792.80;;;18.10
69590;BMP180;56792;50.644;17.984;2023-07-28T08:13:36;98793.60;;;18.26
69590;BMP180;56792;50.644;17.984;2023-07-28T08:16:05;98794.40;;;18.46
69590;BMP180;56792;50.644;17.984;2023-07-28T08:18:33;98801.80;;;18.52
69590;BMP180;56792;50.644;17.984;2023-07-28T08:21:02;98805.00;;;18.60
69590;BMP180;56792;50.644;17.984;2023-07-28T08:23:30;98803.60;;;18.60
69590;BMP180;56792;50.644;17.984;2023-07-28T08:25:59;98802.80;;;18.70
69590;BMP180;56792;50.644;17.984;2023-07-28T08:28:27;98800.00;;;18.80
69590;BMP180;56792;50.644;17.984;2023-07-28T08:30:56;98804.40;;;18.92
69590;BMP180;56792;50.644;17.984;2023-07-28T08:33:25;98799.60;;;19.10
69590;BMP180;56792;50.644;17.984;2023-07-28T08:35:54;98797.60;;;19.20
69590;BMP180;56792;50.644;17.984;2023-07-28T08:38:23;98794.00;;;19.30
69590;BMP180;56792;50.644;17.984;2023-07-28T08:40:51;98793.00;;;19.42
69590;BMP180;56792;50.644;17.984;2023-07-28T08:43:20;98789.40;;;19.52
69590;BMP180;56792;50.644;17.984;2023-07-28T08:45:48;98784.60;;;19.70
69590;BMP180;56792;50.644;17.984;2023-07-28T08:48:16;98782.80;;;19.90
69590;BMP180;56792;50.644;17.984;2023-07-28T08:50:45;98787.20;;;20.20
69590;BMP180;56792;50.644;17.984;2023-07-28T08:53:14;98796.40;;;20.42
69590;BMP180;56792;50.644;17.984;2023-07-28T08:55:43;98794.80;;;20.68
69590;BMP180;56792;50.644;17.984;2023-07-28T08:58:21;98787.20;;;20.88
69590;BMP180;56792;50.644;17.984;2023-07-28T09:00:52;98785.40;;;21.00
69590;BMP180;56792;50.644;17.984;2023-07-28T09:03:21;98795.20;;;21.00
69590;BMP180;56792;50.644;17.984;2023-07-28T09:05:50;98789.40;;;21.10
69590;BMP180;56792;50.644;17.984;2023-07-28T09:08:19;98801.20;;;21.08
69590;BMP180;56792;50.644;17.984;2023-07-28T09:10:49;98805.80;;;21.00
69590;BMP180;56792;50.644;17.984;2023-07-28T09:13:19;98806.80;;;21.10
69590;BMP180;56792;50.644;17.984;2023-07-28T09:15:48;98810.40;;;21.20
69590;BMP180;56792;50.644;17.984;2023-07-28T09:18:18;98812.00;;;21.30
69590;BMP180;56792;50.644;17.984;2023-07-28T09:20:46;98809.20;;;21.30
69590;BMP180;56792;50.644;17.984;2023-07-28T09:23:16;98812.60;;;21.40
69590;BMP180;56792;50.644;17.984;2023-07-28T09:25:45;98815.40;;;21.50
69590;BMP180;56792;50.644;17.984;2023-07-28T09:28:14;98819.80;;;21.64
69590;BMP180;56792;50.644;17.984;2023-07-28T09:30:48;98820.00;;;21.62
69590;BMP180;56792;50.644;17.984;2023-07-28T09:33:32;98818.00;;;21.72
69590;BMP180;56792;50.644;17.984;2023-07-28T09:36:09;98817.60;;;22.00
69590;BMP180;56792;50.644;17.984;2023-07-28T09:38:40;98816.40;;;22.00
69590;BMP180;56792;50.644;17.984;2023-07-28T09:41:10;98808.40;;;21.90
69590;BMP180;56792;50.644;17.984;2023-07-28T09:43:41;98806.40;;;21.90
69590;BMP180;56792;50.644;17.984;2023-07-28T09:46:11;98812.00;;;22.00
69590;BMP180;56792;50.644;17.984;2023-07-28T09:48:45;98809.80;;;22.18
69590;BMP180;56792;50.644;17.984;2023-07-28T09:51:19;98809.60;;;22.66
69590;BMP180;56792;50.644;17.984;2023-07-28T09:53:55;98807.80;;;23.16
69590;BMP180;56792;50.644;17.984;2023-07-28T09:56:29;98811.40;;;23.20
69590;BMP180;56792;50.644;17.984;2023-07-28T09:58:59;98805.40;;;23.30
69590;BMP180;56792;50.644;17.984;2023-07-28T10:01:31;98800.80;;;23.40
69590;BMP180;56792;50.644;17.984;2023-07-28T10:04:01;98796.60;;;23.40
69590;BMP180;56792;50.644;17.984;2023-07-28T10:06:30;98798.40;;;23.70
69590;BMP180;56792;50.644;17.984;2023-07-28T10:09:01;98801.80;;;24.00
69590;BMP180;56792;50.644;17.984;2023-07-28T10:11:30;98799.80;;;23.80
69590;BMP180;56792;50.644;17.984;2023-07-28T10:13:59;98802.80;;;23.90
69590;BMP180;56792;50.644;17.984;2023-07-28T10:16:39;98801.40;;;24.10
69590;BMP180;56792;50.644;17.984;2023-07-28T10:19:08;98804.60;;;23.90
69590;BMP180;56792;50.644;17.984;2023-07-28T10:21:41;98803.00;;;23.80
69590;BMP180;56792;50.644;17.984;2023-07-28T10:24:10;98807.00;;;23.90
69590;BMP180;56792;50.644;17.984;2023-07-28T10:26:39;98806.40;;;24.00
69590;BMP180;56792;50.644;17.984;2023-07-28T10:29:13;98802.80;;;24.00
69590;BMP180;56792;50.644;17.984;2023-07-28T10:31:53;98806.60;;;23.80
69590;BMP180;56792;50.644;17.984;2023-07-28T10:34:24;98812.60;;;23.80
69590;BMP180;56792;50.644;17.984;2023-07-28T10:36:59;98807.00;;;24.10
69590;BMP180;56792;50.644;17.984;2023-07-28T10:39:27;98809.40;;;24.10
69590;BMP180;56792;50.644;17.984;2023-07-28T10:42:05;98808.40;;;24.66
69590;BMP180;56792;50.644;17.984;2023-07-28T10:44:34;98813.40;;;25.44
69590;BMP180;56792;50.644;17.984;2023-07-28T10:47:07;98814.40;;;26.02
69590;BMP180;56792;50.644;17.984;2023-07-28T10:49:36;98805.00;;;26.40
69590;BMP180;56792;50.644;17.984;2023-07-28T10:52:05;98809.40;;;26.70
69590;BMP180;56792;50.644;17.984;2023-07-28T10:54:34;98807.20;;;26.90
69590;BMP180;56792;50.644;17.984;2023-07-28T10:57:04;98813.20;;;27.30
69590;BMP180;56792;50.644;17.984;2023-07-28T10:59:33;98805.60;;;27.52
69590;BMP180;56792;50.644;17.984;2023-07-28T11:02:03;98804.80;;;27.70
69590;BMP180;56792;50.644;17.984;2023-07-28T11:04:31;98806.40;;;27.82
69590;BMP180;56792;50.644;17.984;2023-07-28T11:07:00;98809.40;;;27.66
69590;BMP180;56792;50.644;17.984;2023-07-28T11:09:28;98802.40;;;27.50
69590;BMP180;56792;50.644;17.984;2023-07-28T11:11:57;98805.20;;;27.70
69590;BMP180;56792;50.644;17.984;2023-07-28T11:14:26;98806.00;;;27.60
69590;BMP180;56792;50.644;17.984;2023-07-28T11:16:55;98809.40;;;27.64
69590;BMP180;56792;50.644;17.984;2023-07-28T11:19:23;98806.40;;;27.42
69590;BMP180;56792;50.644;17.984;2023-07-28T11:21:52;98810.40;;;27.10
69590;BMP180;56792;50.644;17.984;2023-07-28T11:24:21;98812.80;;;26.80
69590;BMP180;56792;50.644;17.984;2023-07-28T11:26:51;98809.60;;;26.42
69590;BMP180;56792;50.644;17.984;2023-07-28T11:29:20;98802.00;;;26.12
69590;BMP180;56792;50.644;17.984;2023-07-28T11:31:50;98801.80;;;25.90
69590;BMP180;56792;50.644;17.984;2023-07-28T11:34:19;98795.80;;;25.80
69590;BMP180;56792;50.644;17.984;2023-07-28T11:36:48;98801.00;;;25.70
69590;BMP180;56792;50.644;17.984;2023-07-28T11:39:17;98808.20;;;25.48
69590;BMP180;56792;50.644;17.984;2023-07-28T11:41:47;98801.40;;;25.30
69590;BMP180;56792;50.644;17.984;2023-07-28T11:44:17;98792.20;;;25.20
69590;BMP180;56792;50.644;17.984;2023-07-28T11:46:45;98796.80;;;25.30
69590;BMP180;56792;50.644;17.984;2023-07-28T11:49:16;98790.00;;;25.52
69590;BMP180;56792;50.644;17.984;2023-07-28T11:51:49;98787.20;;;25.84
69590;BMP180;56792;50.644;17.984;2023-07-28T11:54:22;98785.40;;;25.90
69590;BMP180;56792;50.644;17.984;2023-07-28T11:56:55;98778.20;;;26.20
69590;BMP180;56792;50.644;17.984;2023-07-28T11:59:24;98789.20;;;26.70
69590;BMP180;56792;50.644;17.984;2023-07-28T12:01:58;98798.00;;;27.24
69590;BMP180;56792;50.644;17.984;2023-07-28T12:04:28;98792.40;;;27.10
69590;BMP180;56792;50.644;17.984;2023-07-28T12:07:08;98786.60;;;26.68
69590;BMP180;56792;50.644;17.984;2023-07-28T12:09:50;98780.40;;;26.10
69590;BMP180;56792;50.644;17.984;2023-07-28T12:12:21;98780.80;;;26.20
69590;BMP180;56792;50.644;17.984;2023-07-28T12:14:51;98758.40;;;26.34
69590;BMP180;56792;50.644;17.984;2023-07-28T12:17:22;98759.00;;;27.42
69590;BMP180;56792;50.644;17.984;2023-07-28T12:20:00;98764.80;;;28.82
69590;BMP180;56792;50.644;17.984;2023-07-28T12:22:29;98768.40;;;29.10
69590;BMP180;56792;50.644;17.984;2023-07-28T12:24:58;98759.80;;;29.42
69590;BMP180;56792;50.644;17.984;2023-07-28T12:27:26;98767.00;;;30.66
69590;BMP180;56792;50.644;17.984;2023-07-28T12:29:54;98756.00;;;31.64
69590;BMP180;56792;50.644;17.984;2023-07-28T12:32:23;98753.00;;;32.32
69590;BMP180;56792;50.644;17.984;2023-07-28T12:34:52;98752.20;;;33.52
69590;BMP180;56792;50.644;17.984;2023-07-28T12:37:21;98752.00;;;34.06
69590;BMP180;56792;50.644;17.984;2023-07-28T12:39:49;98769.60;;;34.50
69590;BMP180;56792;50.644;17.984;2023-07-28T12:42:18;98773.60;;;34.32
69590;BMP180;56792;50.644;17.984;2023-07-28T12:44:48;98776.80;;;33.58
69590;BMP180;56792;50.644;17.984;2023-07-28T12:47:16;98777.00;;;32.42
69590;BMP180;56792;50.644;17.984;2023-07-28T12:49:44;98783.40;;;31.80
69590;BMP180;56792;50.644;17.984;2023-07-28T12:52:13;98768.40;;;31.78
69590;BMP180;56792;50.644;17.984;2023-07-28T12:54:43;98766.40;;;32.60
69590;BMP180;56792;50.644;17.984;2023-07-28T12:57:12;98759.60;;;33.14
69590;BMP180;56792;50.644;17.984;2023-07-28T12:59:40;98776.00;;;32.84
69590;BMP180;56792;50.644;17.984;2023-07-28T13:02:08;98789.60;;;32.90
69590;BMP180;56792;50.644;17.984;2023-07-28T13:04:37;98790.80;;;32.60
69590;BMP180;56792;50.644;17.984;2023-07-28T13:07:06;98793.20;;;32.76
69590;BMP180;56792;50.644;17.984;2023-07-28T13:09:34;98788.60;;;33.10
69590;BMP180;56792;50.644;17.984;2023-07-28T13:12:03;98779.00;;;33.20
69590;BMP180;56792;50.644;17.984;2023-07-28T13:14:32;98776.60;;;32.90
69590;BMP180;56792;50.644;17.984;2023-07-28T13:17:00;98782.40;;;32.54
69590;BMP180;56792;50.644;17.984;2023-07-28T13:19:28;98776.00;;;32.52
69590;BMP180;56792;50.644;17.984;2023-07-28T13:21:57;98771.60;;;32.08
69590;BMP180;56792;50.644;17.984;2023-07-28T13:24:25;98770.20;;;32.30
69590;BMP180;56792;50.644;17.984;2023-07-28T13:26:53;98772.00;;;32.32
69590;BMP180;56792;50.644;17.984;2023-07-28T13:29:22;98781.60;;;32.30
69590;BMP180;56792;50.644;17.984;2023-07-28T13:31:50;98787.60;;;31.92
69590;BMP180;56792;50.644;17.984;2023-07-28T13:34:18;98785.60;;;31.18
69590;BMP180;56792;50.644;17.984;2023-07-28T13:36:47;98787.20;;;30.72
69590;BMP180;56792;50.644;17.984;2023-07-28T13:39:15;98783.80;;;30.20
69590;BMP180;56792;50.644;17.984;2023-07-28T13:41:43;98786.00;;;29.98
69590;BMP180;56792;50.644;17.984;2023-07-28T13:44:12;98773.40;;;29.62
69590;BMP180;56792;50.644;17.984;2023-07-28T13:46:40;98765.60;;;29.50
69590;BMP180;56792;50.644;17.984;2023-07-28T13:49:09;98765.20;;;29.60
69590;BMP180;56792;50.644;17.984;2023-07-28T13:51:37;98775.20;;;29.30
69590;BMP180;56792;50.644;17.984;2023-07-28T13:54:06;98776.40;;;29.20
69590;BMP180;56792;50.644;17.984;2023-07-28T13:56:34;98780.60;;;29.20
69590;BMP180;56792;50.644;17.984;2023-07-28T13:59:02;98766.80;;;29.12
69590;BMP180;56792;50.644;17.984;2023-07-28T14:01:31;98767.60;;;29.30
69590;BMP180;56792;50.644;17.984;2023-07-28T14:04:00;98763.40;;;29.10
69590;BMP180;56792;50.644;17.984;2023-07-28T14:06:28;98776.80;;;29.00
69590;BMP180;56792;50.644;17.984;2023-07-28T14:08:56;98777.60;;;28.90
69590;BMP180;56792;50.644;17.984;2023-07-28T14:11:25;98778.60;;;28.52